sensor_id;sensor_type;location;lat;lon;timestamp;temperature;humidity
3860;DHT22;1945;52.036;8.614;2023-02-22T00:01:44;8.30;99.90
3860;DHT22;1945;52.036;8.614;2023-02-22T00:04:15;7.80;99.90
3860;DHT22;1945;52.036;8.614;2023-02-22T00:06:45;8.40;99.90
3860;DHT22;1945;52.036;8.614;2023-02-22T00:09:13;7.80;99.90
3860;DHT22;1945;52.036;8.614;2023-02-22T00:11:46;8.60;99.90
3860;DHT22;1945;52.036;8.614;2023-02-22T00:14:14;8.10;99.90
3860;DHT22;1945;52.036;8.614;2023-02-22T00:16:47;8.30;99.90
3860;DHT22;1945;52.036;8.614;2023-02-22T00:19:17;8.30;99.90
3860;DHT22;1945;52.036;8.614;2023-02-22T00:21:48;8.10;99.90
3860;DHT22;1945;52.036;8.614;2023-02-22T00:24:19;8.30;99.90
3860;DHT22;1945;52.036;8.614;2023-02-22T00:26:50;8.30;99.90
3860;DHT22;1945;52.036;8.614;2023-02-22T00:29:20;8.50;99.90
3860;DHT22;1945;52.036;8.614;2023-02-22T00:31:51;8.60;99.90
3860;DHT22;1945;52.036;8.614;2023-02-22T00:34:19;8.50;99.90
3860;DHT22;1945;52.036;8.614;2023-02-22T00:36:48;8.40;99.90
3860;DHT22;1945;52.036;8.614;2023-02-22T00:39:17;8.80;99.90
3860;DHT22;1945;52.036;8.614;2023-02-22T00:41:45;8.50;99.90
3860;DHT22;1945;52.036;8.614;2023-02-22T00:44:14;8.30;99.90
3860;DHT22;1945;52.036;8.614;2023-02-22T00:46:43;8.30;99.90
3860;DHT22;1945;52.036;8.614;2023-02-22T00:49:13;8.30;99.90
3860;DHT22;1945;52.036;8.614;2023-02-22T00:51:41;8.30;99.90
3860;DHT22;1945;52.036;8.614;2023-02-22T00:54:10;8.10;99.90
3860;DHT22;1945;52.036;8.614;2023-02-22T00:56:39;8.30;99.90
3860;DHT22;1945;52.036;8.614;2023-02-22T00:59:08;8.30;99.90
3860;DHT22;1945;52.036;8.614;2023-02-22T01:01:35;8.30;99.90
3860;DHT22;1945;52.036;8.614;2023-02-22T01:04:02;8.30;99.90
3860;DHT22;1945;52.036;8.614;2023-02-22T01:06:30;8.60;99.90
3860;DHT22;1945;52.036;8.614;2023-02-22T01:08:57;8.20;99.90
3860;DHT22;1945;52.036;8.614;2023-02-22T01:11:23;7.80;99.90
3860;DHT22;1945;52.036;8.614;2023-02-22T01:13:50;7.90;99.90
3860;DHT22;1945;52.036;8.614;2023-02-22T01:16:18;8.10;99.90
3860;DHT22;1945;52.036;8.614;2023-02-22T01:18:45;8.30;99.90
3860;DHT22;1945;52.036;8.614;2023-02-22T01:21:12;7.90;99.90
3860;DHT22;1945;52.036;8.614;2023-02-22T01:23:40;8.00;99.90
3860;DHT22;1945;52.036;8.614;2023-02-22T01:26:06;7.90;99.90
3860;DHT22;1945;52.036;8.614;2023-02-22T01:28:34;8.30;99.90
3860;DHT22;1945;52.036;8.614;2023-02-22T01:31:00;8.30;99.90
3860;DHT22;1945;52.036;8.614;2023-02-22T01:33:27;8.20;99.90
3860;DHT22;1945;52.036;8.614;2023-02-22T01:35:54;7.80;99.90
3860;DHT22;1945;52.036;8.614;2023-02-22T01:38:21;8.10;99.90
3860;DHT22;1945;52.036;8.614;2023-02-22T01:40:50;7.70;99.90
3860;DHT22;1945;52.036;8.614;2023-02-22T01:43:20;7.40;99.90
3860;DHT22;1945;52.036;8.614;2023-02-22T01:45:53;8.20;99.90
3860;DHT22;1945;52.036;8.614;2023-02-22T01:50:59;7.50;99.90
3860;DHT22;1945;52.036;8.614;2023-02-22T01:53:30;8.00;99.90
3860;DHT22;1945;52.036;8.614;2023-02-22T01:56:04;7.90;99.90
3860;DHT22;1945;52.036;8.614;2023-02-22T01:58:33;7.70;99.90
3860;DHT22;1945;52.036;8.614;2023-02-22T02:01:01;7.20;99.90
3860;DHT22;1945;52.036;8.614;2023-02-22T02:03:31;7.40;99.90
3860;DHT22;1945;52.036;8.614;2023-02-22T02:06:01;7.60;99.90
3860;DHT22;1945;52.036;8.614;2023-02-22T02:08:34;7.80;99.90
3860;DHT22;1945;52.036;8.614;2023-02-22T02:11:05;7.50;99.90
3860;DHT22;1945;52.036;8.614;2023-02-22T02:13:33;7.30;99.90
3860;DHT22;1945;52.036;8.614;2023-02-22T02:16:00;7.10;99.90
3860;DHT22;1945;52.036;8.614;2023-02-22T02:18:28;7.20;99.90
3860;DHT22;1945;52.036;8.614;2023-02-22T02:24:27;7.00;99.90
3860;DHT22;1945;52.036;8.614;2023-02-22T02:27:13;6.50;99.90
3860;DHT22;1945;52.036;8.614;2023-02-22T02:32:53;6.70;99.90
3860;DHT22;1945;52.036;8.614;2023-02-22T02:35:28;7.00;99.90
3860;DHT22;1945;52.036;8.614;2023-02-22T03:48:34;5.10;99.90
3860;DHT22;1945;52.036;8.614;2023-02-22T03:51:02;5.20;99.90
3860;DHT22;1945;52.036;8.614;2023-02-22T03:53:29;5.10;99.90
3860;DHT22;1945;52.036;8.614;2023-02-22T03:55:59;5.10;99.90
3860;DHT22;1945;52.036;8.614;2023-02-22T03:58:29;5.00;99.90
3860;DHT22;1945;52.036;8.614;2023-02-22T04:00:56;5.00;99.90
3860;DHT22;1945;52.036;8.614;2023-02-22T04:03:23;4.90;99.90
3860;DHT22;1945;52.036;8.614;2023-02-22T04:05:51;4.90;99.90
3860;DHT22;1945;52.036;8.614;2023-02-22T04:08:18;4.80;99.90
3860;DHT22;1945;52.036;8.614;2023-02-22T04:10:45;4.80;99.90
3860;DHT22;1945;52.036;8.614;2023-02-22T04:13:11;4.80;99.90
3860;DHT22;1945;52.036;8.614;2023-02-22T04:15:39;4.70;99.90
3860;DHT22;1945;52.036;8.614;2023-02-22T04:18:05;4.70;99.90
3860;DHT22;1945;52.036;8.614;2023-02-22T04:20:32;4.70;99.90
3860;DHT22;1945;52.036;8.614;2023-02-22T04:23:00;4.60;99.90
3860;DHT22;1945;52.036;8.614;2023-02-22T04:25:27;4.60;99.90
3860;DHT22;1945;52.036;8.614;2023-02-22T04:27:53;4.60;99.90
3860;DHT22;1945;52.036;8.614;2023-02-22T04:30:21;4.50;99.90
3860;DHT22;1945;52.036;8.614;2023-02-22T04:32:47;4.40;99.90
3860;DHT22;1945;52.036;8.614;2023-02-22T04:35:14;4.40;99.90
3860;DHT22;1945;52.036;8.614;2023-02-22T04:37:41;4.30;99.90
3860;DHT22;1945;52.036;8.614;2023-02-22T04:40:10;4.30;99.90
3860;DHT22;1945;52.036;8.614;2023-02-22T04:42:37;4.30;99.90
3860;DHT22;1945;52.036;8.614;2023-02-22T04:45:06;4.30;99.90
3860;DHT22;1945;52.036;8.614;2023-02-22T04:47:33;4.20;99.90
3860;DHT22;1945;52.036;8.614;2023-02-22T04:50:00;4.20;99.90
3860;DHT22;1945;52.036;8.614;2023-02-22T04:52:26;4.20;99.90
3860;DHT22;1945;52.036;8.614;2023-02-22T04:54:53;4.20;99.90
3860;DHT22;1945;52.036;8.614;2023-02-22T04:57:21;4.10;99.90
3860;DHT22;1945;52.036;8.614;2023-02-22T04:59:48;4.10;99.90
3860;DHT22;1945;52.036;8.614;2023-02-22T05:02:15;4.00;99.90
3860;DHT22;1945;52.036;8.614;2023-02-22T05:04:42;4.10;99.90
3860;DHT22;1945;52.036;8.614;2023-02-22T05:07:09;4.00;99.90
3860;DHT22;1945;52.036;8.614;2023-02-22T05:09:36;4.30;99.90
3860;DHT22;1945;52.036;8.614;2023-02-22T05:12:03;3.90;99.90
3860;DHT22;1945;52.036;8.614;2023-02-22T05:14:31;3.80;99.90
3860;DHT22;1945;52.036;8.614;2023-02-22T05:16:58;3.80;99.90
3860;DHT22;1945;52.036;8.614;2023-02-22T05:19:25;3.70;99.90
3860;DHT22;1945;52.036;8.614;2023-02-22T05:21:52;3.70;99.90
3860;DHT22;1945;52.036;8.614;2023-02-22T05:24:20;3.60;99.90
3860;DHT22;1945;52.036;8.614;2023-02-22T05:26:47;3.70;99.90
3860;DHT22;1945;52.036;8.614;2023-02-22T05:29:16;3.70;99.90
3860;DHT22;1945;52.036;8.614;2023-02-22T05:31:44;3.60;99.90
3860;DHT22;1945;52.036;8.614;2023-02-22T05:34:10;3.60;99.90
3860;DHT22;1945;52.036;8.614;2023-02-22T05:36:41;3.60;99.90
3860;DHT22;1945;52.036;8.614;2023-02-22T05:39:08;3.60;99.90
3860;DHT22;1945;52.036;8.614;2023-02-22T05:41:34;3.60;99.90
3860;DHT22;1945;52.036;8.614;2023-02-22T05:44:01;3.60;99.90
3860;DHT22;1945;52.036;8.614;2023-02-22T05:46:28;3.50;99.90
3860;DHT22;1945;52.036;8.614;2023-02-22T05:48:56;3.50;99.90
3860;DHT22;1945;52.036;8.614;2023-02-22T05:51:23;3.40;99.90
3860;DHT22;1945;52.036;8.614;2023-02-22T05:53:50;3.40;99.90
3860;DHT22;1945;52.036;8.614;2023-02-22T05:56:20;3.40;99.90
3860;DHT22;1945;52.036;8.614;2023-02-22T05:58:47;3.40;99.90
3860;DHT22;1945;52.036;8.614;2023-02-22T06:01:14;3.40;99.90
3860;DHT22;1945;52.036;8.614;2023-02-22T06:03:40;3.40;99.90
3860;DHT22;1945;52.036;8.614;2023-02-22T06:06:09;3.40;99.90
3860;DHT22;1945;52.036;8.614;2023-02-22T06:08:36;3.40;99.90
3860;DHT22;1945;52.036;8.614;2023-02-22T06:11:03;3.40;99.90
3860;DHT22;1945;52.036;8.614;2023-02-22T06:13:29;3.30;99.90
3860;DHT22;1945;52.036;8.614;2023-02-22T06:15:56;3.30;99.90
3860;DHT22;1945;52.036;8.614;2023-02-22T06:18:23;3.30;99.90
3860;DHT22;1945;52.036;8.614;2023-02-22T06:20:51;3.30;99.90
3860;DHT22;1945;52.036;8.614;2023-02-22T06:23:19;3.30;99.90
3860;DHT22;1945;52.036;8.614;2023-02-22T06:25:46;3.20;99.90
3860;DHT22;1945;52.036;8.614;2023-02-22T06:28:13;3.40;99.90
3860;DHT22;1945;52.036;8.614;2023-02-22T06:30:40;3.20;99.90
3860;DHT22;1945;52.036;8.614;2023-02-22T06:33:08;3.30;99.90
3860;DHT22;1945;52.036;8.614;2023-02-22T06:35:34;3.30;99.90
3860;DHT22;1945;52.036;8.614;2023-02-22T06:38:01;3.30;99.90
3860;DHT22;1945;52.036;8.614;2023-02-22T06:40:29;3.30;99.90
3860;DHT22;1945;52.036;8.614;2023-02-22T06:42:56;3.40;99.90
3860;DHT22;1945;52.036;8.614;2023-02-22T06:45:24;3.60;99.90
3860;DHT22;1945;52.036;8.614;2023-02-22T06:47:51;4.20;99.90
3860;DHT22;1945;52.036;8.614;2023-02-22T06:50:20;4.10;99.90
3860;DHT22;1945;52.036;8.614;2023-02-22T06:52:47;4.10;99.90
3860;DHT22;1945;52.036;8.614;2023-02-22T06:55:19;4.30;99.90
3860;DHT22;1945;52.036;8.614;2023-02-22T06:57:47;4.50;99.90
3860;DHT22;1945;52.036;8.614;2023-02-22T07:00:15;4.50;99.90
3860;DHT22;1945;52.036;8.614;2023-02-22T07:02:43;4.70;99.90
3860;DHT22;1945;52.036;8.614;2023-02-22T07:05:11;4.80;99.90
3860;DHT22;1945;52.036;8.614;2023-02-22T07:07:38;4.80;99.90
3860;DHT22;1945;52.036;8.614;2023-02-22T07:10:05;4.80;99.90
3860;DHT22;1945;52.036;8.614;2023-02-22T07:12:32;5.00;99.90
3860;DHT22;1945;52.036;8.614;2023-02-22T07:15:00;4.90;99.90
3860;DHT22;1945;52.036;8.614;2023-02-22T07:17:27;5.10;99.90
3860;DHT22;1945;52.036;8.614;2023-02-22T07:19:54;5.10;99.90
3860;DHT22;1945;52.036;8.614;2023-02-22T07:22:20;5.20;99.90
3860;DHT22;1945;52.036;8.614;2023-02-22T07:24:47;5.40;99.90
3860;DHT22;1945;52.036;8.614;2023-02-22T07:27:14;5.60;99.90
3860;DHT22;1945;52.036;8.614;2023-02-22T07:29:41;6.10;99.90
3860;DHT22;1945;52.036;8.614;2023-02-22T07:32:09;5.90;99.90
3860;DHT22;1945;52.036;8.614;2023-02-22T07:34:36;6.20;99.90
3860;DHT22;1945;52.036;8.614;2023-02-22T07:37:03;6.30;99.90
3860;DHT22;1945;52.036;8.614;2023-02-22T07:39:29;6.40;99.90
3860;DHT22;1945;52.036;8.614;2023-02-22T07:41:57;6.50;99.90
3860;DHT22;1945;52.036;8.614;2023-02-22T07:44:24;6.70;99.90
3860;DHT22;1945;52.036;8.614;2023-02-22T07:46:51;6.80;99.90
3860;DHT22;1945;52.036;8.614;2023-02-22T07:49:19;6.90;99.90
3860;DHT22;1945;52.036;8.614;2023-02-22T07:51:45;6.90;99.90
3860;DHT22;1945;52.036;8.614;2023-02-22T07:54:12;6.80;99.90
3860;DHT22;1945;52.036;8.614;2023-02-22T07:56:44;7.10;99.90
3860;DHT22;1945;52.036;8.614;2023-02-22T07:59:12;7.20;99.90
3860;DHT22;1945;52.036;8.614;2023-02-22T08:01:38;7.30;99.90
3860;DHT22;1945;52.036;8.614;2023-02-22T08:04:05;7.40;99.90
3860;DHT22;1945;52.036;8.614;2023-02-22T08:06:33;7.50;99.90
3860;DHT22;1945;52.036;8.614;2023-02-22T08:09:00;7.60;99.90
3860;DHT22;1945;52.036;8.614;2023-02-22T08:11:27;7.60;99.90
3860;DHT22;1945;52.036;8.614;2023-02-22T08:13:53;7.70;99.90
3860;DHT22;1945;52.036;8.614;2023-02-22T08:16:20;7.80;99.90
3860;DHT22;1945;52.036;8.614;2023-02-22T08:18:47;8.20;99.90
3860;DHT22;1945;52.036;8.614;2023-02-22T08:21:15;8.00;99.90
3860;DHT22;1945;52.036;8.614;2023-02-22T08:23:43;8.00;99.90
3860;DHT22;1945;52.036;8.614;2023-02-22T08:26:11;8.10;99.90
3860;DHT22;1945;52.036;8.614;2023-02-22T08:28:42;8.30;99.90
3860;DHT22;1945;52.036;8.614;2023-02-22T08:31:09;8.40;99.90
3860;DHT22;1945;52.036;8.614;2023-02-22T08:33:36;8.50;99.90
3860;DHT22;1945;52.036;8.614;2023-02-22T08:36:03;8.60;99.90
3860;DHT22;1945;52.036;8.614;2023-02-22T08:38:30;8.80;99.90
3860;DHT22;1945;52.036;8.614;2023-02-22T08:40:59;8.80;99.90
3860;DHT22;1945;52.036;8.614;2023-02-22T08:43:26;8.90;99.90
3860;DHT22;1945;52.036;8.614;2023-02-22T08:45:53;9.00;99.90
3860;DHT22;1945;52.036;8.614;2023-02-22T08:48:20;9.10;99.90
3860;DHT22;1945;52.036;8.614;2023-02-22T08:50:47;9.20;99.90
3860;DHT22;1945;52.036;8.614;2023-02-22T08:53:15;9.20;99.90
3860;DHT22;1945;52.036;8.614;2023-02-22T08:55:42;9.30;99.90
3860;DHT22;1945;52.036;8.614;2023-02-22T08:58:10;9.20;99.90
3860;DHT22;1945;52.036;8.614;2023-02-22T09:00:38;9.50;99.90
3860;DHT22;1945;52.036;8.614;2023-02-22T09:03:06;9.60;99.90
3860;DHT22;1945;52.036;8.614;2023-02-22T09:05:33;9.60;91.00
3860;DHT22;1945;52.036;8.614;2023-02-22T09:08:01;9.70;79.30
3860;DHT22;1945;52.036;8.614;2023-02-22T09:10:29;9.70;1.00
3860;DHT22;1945;52.036;8.614;2023-02-22T09:12:57;9.80;1.00
3860;DHT22;1945;52.036;8.614;2023-02-22T09:15:26;9.80;1.00
3860;DHT22;1945;52.036;8.614;2023-02-22T09:17:53;9.80;1.00
3860;DHT22;1945;52.036;8.614;2023-02-22T09:20:21;9.90;1.00
3860;DHT22;1945;52.036;8.614;2023-02-22T09:22:49;10.00;1.00
3860;DHT22;1945;52.036;8.614;2023-02-22T09:25:17;10.10;1.00
3860;DHT22;1945;52.036;8.614;2023-02-22T09:27:46;10.30;1.00
3860;DHT22;1945;52.036;8.614;2023-02-22T09:30:17;10.30;1.00
3860;DHT22;1945;52.036;8.614;2023-02-22T09:32:45;10.40;1.00
3860;DHT22;1945;52.036;8.614;2023-02-22T09:35:12;10.40;1.00
3860;DHT22;1945;52.036;8.614;2023-02-22T09:37:39;10.50;1.00
3860;DHT22;1945;52.036;8.614;2023-02-22T09:40:13;10.50;1.00
3860;DHT22;1945;52.036;8.614;2023-02-22T09:42:48;10.60;1.00
3860;DHT22;1945;52.036;8.614;2023-02-22T09:45:21;10.60;1.00
3860;DHT22;1945;52.036;8.614;2023-02-22T09:47:53;10.70;1.00
3860;DHT22;1945;52.036;8.614;2023-02-22T09:50:23;10.70;99.90
3860;DHT22;1945;52.036;8.614;2023-02-22T09:52:54;10.90;99.90
3860;DHT22;1945;52.036;8.614;2023-02-22T09:55:31;10.90;99.90
3860;DHT22;1945;52.036;8.614;2023-02-22T09:58:05;11.00;99.90
3860;DHT22;1945;52.036;8.614;2023-02-22T10:00:34;11.00;99.90
3860;DHT22;1945;52.036;8.614;2023-02-22T10:03:14;11.00;99.90
3860;DHT22;1945;52.036;8.614;2023-02-22T10:05:46;11.40;99.90
3860;DHT22;1945;52.036;8.614;2023-02-22T10:08:16;11.20;99.90
3860;DHT22;1945;52.036;8.614;2023-02-22T10:10:45;11.20;99.90
3860;DHT22;1945;52.036;8.614;2023-02-22T10:13:31;11.30;99.90
3860;DHT22;1945;52.036;8.614;2023-02-22T10:16:06;11.40;99.90
3860;DHT22;1945;52.036;8.614;2023-02-22T10:18:51;11.40;99.90
3860;DHT22;1945;52.036;8.614;2023-02-22T10:21:34;11.50;99.90
3860;DHT22;1945;52.036;8.614;2023-02-22T10:24:14;11.60;99.90
3860;DHT22;1945;52.036;8.614;2023-02-22T10:26:44;11.60;99.90
3860;DHT22;1945;52.036;8.614;2023-02-22T10:29:17;11.70;99.90
3860;DHT22;1945;52.036;8.614;2023-02-22T10:31:50;11.80;19.70
3860;DHT22;1945;52.036;8.614;2023-02-22T10:34:24;11.80;1.00
3860;DHT22;1945;52.036;8.614;2023-02-22T10:36:56;11.90;1.00
3860;DHT22;1945;52.036;8.614;2023-02-22T10:39:28;11.90;1.00
3860;DHT22;1945;52.036;8.614;2023-02-22T10:41:58;12.00;1.00
3860;DHT22;1945;52.036;8.614;2023-02-22T10:44:30;12.00;1.00
3860;DHT22;1945;52.036;8.614;2023-02-22T10:46:57;12.10;1.00
3860;DHT22;1945;52.036;8.614;2023-02-22T10:49:30;12.10;1.00
3860;DHT22;1945;52.036;8.614;2023-02-22T10:52:00;12.20;1.00
3860;DHT22;1945;52.036;8.614;2023-02-22T10:54:30;12.30;1.00
3860;DHT22;1945;52.036;8.614;2023-02-22T10:56:57;12.40;1.00
3860;DHT22;1945;52.036;8.614;2023-02-22T10:59:27;12.40;99.90
3860;DHT22;1945;52.036;8.614;2023-02-22T11:01:55;12.40;1.00
3860;DHT22;1945;52.036;8.614;2023-02-22T11:04:22;12.50;99.90
3860;DHT22;1945;52.036;8.614;2023-02-22T11:07:07;12.60;99.90
3860;DHT22;1945;52.036;8.614;2023-02-22T11:09:45;12.60;99.90
3860;DHT22;1945;52.036;8.614;2023-02-22T11:12:18;12.60;99.90
3860;DHT22;1945;52.036;8.614;2023-02-22T11:14:46;12.70;99.90
3860;DHT22;1945;52.036;8.614;2023-02-22T11:17:17;12.80;99.90
3860;DHT22;1945;52.036;8.614;2023-02-22T11:19:46;12.80;99.90
3860;DHT22;1945;52.036;8.614;2023-02-22T11:22:20;12.90;99.90
3860;DHT22;1945;52.036;8.614;2023-02-22T11:24:49;13.00;99.90
3860;DHT22;1945;52.036;8.614;2023-02-22T11:27:39;12.90;1.00
3860;DHT22;1945;52.036;8.614;2023-02-22T11:30:16;13.10;99.90
3860;DHT22;1945;52.036;8.614;2023-02-22T11:32:48;13.20;65.20
3860;DHT22;1945;52.036;8.614;2023-02-22T11:35:29;13.20;1.00
3860;DHT22;1945;52.036;8.614;2023-02-22T11:38:09;13.20;1.00
3860;DHT22;1945;52.036;8.614;2023-02-22T11:40:36;13.20;1.00
3860;DHT22;1945;52.036;8.614;2023-02-22T11:43:06;13.20;1.00
3860;DHT22;1945;52.036;8.614;2023-02-22T11:45:36;13.30;1.00
3860;DHT22;1945;52.036;8.614;2023-02-22T11:48:06;13.30;1.00
3860;DHT22;1945;52.036;8.614;2023-02-22T11:50:38;13.30;1.00
3860;DHT22;1945;52.036;8.614;2023-02-22T11:53:20;13.30;1.00
3860;DHT22;1945;52.036;8.614;2023-02-22T11:58:44;13.40;1.00
3860;DHT22;1945;52.036;8.614;2023-02-22T12:01:19;13.40;1.00
3860;DHT22;1945;52.036;8.614;2023-02-22T12:04:15;13.50;1.00
3860;DHT22;1945;52.036;8.614;2023-02-22T12:06:52;13.50;1.00
3860;DHT22;1945;52.036;8.614;2023-02-22T12:09:30;13.50;1.00
3860;DHT22;1945;52.036;8.614;2023-02-22T12:12:07;13.50;1.00
3860;DHT22;1945;52.036;8.614;2023-02-22T12:14:43;13.60;1.00
3860;DHT22;1945;52.036;8.614;2023-02-22T12:17:29;13.60;1.00
3860;DHT22;1945;52.036;8.614;2023-02-22T12:20:02;13.60;1.00
3860;DHT22;1945;52.036;8.614;2023-02-22T12:22:36;13.70;1.00
3860;DHT22;1945;52.036;8.614;2023-02-22T12:25:12;13.70;1.00
3860;DHT22;1945;52.036;8.614;2023-02-22T12:27:44;13.70;1.00
3860;DHT22;1945;52.036;8.614;2023-02-22T12:30:19;13.70;1.00
3860;DHT22;1945;52.036;8.614;2023-02-22T12:32:50;13.70;1.00
3860;DHT22;1945;52.036;8.614;2023-02-22T12:35:20;13.70;1.00
3860;DHT22;1945;52.036;8.614;2023-02-22T12:37:58;13.70;1.00
3860;DHT22;1945;52.036;8.614;2023-02-22T12:40:32;13.80;1.00
3860;DHT22;1945;52.036;8.614;2023-02-22T12:43:05;13.80;1.00
3860;DHT22;1945;52.036;8.614;2023-02-22T12:45:39;13.80;1.00
3860;DHT22;1945;52.036;8.614;2023-02-22T12:48:20;13.90;1.00
3860;DHT22;1945;52.036;8.614;2023-02-22T12:50:53;13.90;1.00
3860;DHT22;1945;52.036;8.614;2023-02-22T12:53:25;13.90;1.00
3860;DHT22;1945;52.036;8.614;2023-02-22T12:55:59;13.90;99.90
3860;DHT22;1945;52.036;8.614;2023-02-22T12:58:34;13.90;1.00
3860;DHT22;1945;52.036;8.614;2023-02-22T13:01:05;14.00;1.00
3860;DHT22;1945;52.036;8.614;2023-02-22T13:03:38;14.00;1.00
3860;DHT22;1945;52.036;8.614;2023-02-22T13:06:21;14.00;1.00
3860;DHT22;1945;52.036;8.614;2023-02-22T13:09:00;14.00;1.00
3860;DHT22;1945;52.036;8.614;2023-02-22T13:11:37;14.00;99.90
3860;DHT22;1945;52.036;8.614;2023-02-22T13:14:21;14.00;1.00
3860;DHT22;1945;52.036;8.614;2023-02-22T13:16:55;13.80;1.00
3860;DHT22;1945;52.036;8.614;2023-02-22T13:19:34;13.80;27.90
3860;DHT22;1945;52.036;8.614;2023-02-22T13:22:06;13.80;1.00
3860;DHT22;1945;52.036;8.614;2023-02-22T13:24:42;13.80;1.00
3860;DHT22;1945;52.036;8.614;2023-02-22T13:27:17;13.70;1.00
3860;DHT22;1945;52.036;8.614;2023-02-22T13:29:47;13.70;1.00
3860;DHT22;1945;52.036;8.614;2023-02-22T13:32:24;13.70;1.00
3860;DHT22;1945;52.036;8.614;2023-02-22T13:35:14;13.70;82.80
3860;DHT22;1945;52.036;8.614;2023-02-22T13:38:15;13.60;1.00
3860;DHT22;1945;52.036;8.614;2023-02-22T13:41:03;13.60;58.70
3860;DHT22;1945;52.036;8.614;2023-02-22T13:44:01;13.70;1.00
3860;DHT22;1945;52.036;8.614;2023-02-22T13:49:57;13.60;1.50
3860;DHT22;1945;52.036;8.614;2023-02-22T13:52:33;13.60;37.50
3860;DHT22;1945;52.036;8.614;2023-02-22T13:55:05;13.60;99.90
3860;DHT22;1945;52.036;8.614;2023-02-22T13:57:38;13.60;3.50
3860;DHT22;1945;52.036;8.614;2023-02-22T14:00:21;13.60;4.70
3860;DHT22;1945;52.036;8.614;2023-02-22T14:03:02;13.70;99.90
3860;DHT22;1945;52.036;8.614;2023-02-22T14:05:49;13.70;1.00
3860;DHT22;1945;52.036;8.614;2023-02-22T14:08:44;13.70;1.00
3860;DHT22;1945;52.036;8.614;2023-02-22T14:14:22;13.60;1.00
3860;DHT22;1945;52.036;8.614;2023-02-22T14:17:25;13.70;1.00
3860;DHT22;1945;52.036;8.614;2023-02-22T14:20:00;13.70;1.00
3860;DHT22;1945;52.036;8.614;2023-02-22T14:22:29;13.70;1.00
3860;DHT22;1945;52.036;8.614;2023-02-22T14:24:56;13.60;1.00
3860;DHT22;1945;52.036;8.614;2023-02-22T14:27:23;13.60;1.00
3860;DHT22;1945;52.036;8.614;2023-02-22T14:29:51;13.70;8.00
3860;DHT22;1945;52.036;8.614;2023-02-22T14:32:19;13.60;24.40
3860;DHT22;1945;52.036;8.614;2023-02-22T14:34:57;13.60;1.00
3860;DHT22;1945;52.036;8.614;2023-02-22T14:37:26;13.60;1.00
3860;DHT22;1945;52.036;8.614;2023-02-22T14:39:58;13.60;29.40
3860;DHT22;1945;52.036;8.614;2023-02-22T14:42:39;13.70;34.70
3860;DHT22;1945;52.036;8.614;2023-02-22T14:45:15;13.60;1.00
3860;DHT22;1945;52.036;8.614;2023-02-22T14:47:49;13.60;1.00
3860;DHT22;1945;52.036;8.614;2023-02-22T14:50:35;13.60;28.10
3860;DHT22;1945;52.036;8.614;2023-02-22T14:53:11;13.60;61.10
3860;DHT22;1945;52.036;8.614;2023-02-22T14:55:42;13.60;24.70
3860;DHT22;1945;52.036;8.614;2023-02-22T14:58:14;13.60;36.20
3860;DHT22;1945;52.036;8.614;2023-02-22T15:00:44;13.60;8.90
3860;DHT22;1945;52.036;8.614;2023-02-22T15:03:25;13.50;91.90
3860;DHT22;1945;52.036;8.614;2023-02-22T15:06:03;13.50;75.10
3860;DHT22;1945;52.036;8.614;2023-02-22T15:08:30;13.50;99.90
3860;DHT22;1945;52.036;8.614;2023-02-22T15:10:59;13.40;99.90
3860;DHT22;1945;52.036;8.614;2023-02-22T15:13:28;13.40;99.90
3860;DHT22;1945;52.036;8.614;2023-02-22T15:15:59;13.40;99.90
3860;DHT22;1945;52.036;8.614;2023-02-22T15:18:28;13.40;99.90
3860;DHT22;1945;52.036;8.614;2023-02-22T15:21:03;13.40;99.90
3860;DHT22;1945;52.036;8.614;2023-02-22T15:23:39;13.40;99.90
3860;DHT22;1945;52.036;8.614;2023-02-22T15:26:15;13.40;99.90
3860;DHT22;1945;52.036;8.614;2023-02-22T15:28:42;13.30;99.90
3860;DHT22;1945;52.036;8.614;2023-02-22T15:31:16;13.30;99.90
3860;DHT22;1945;52.036;8.614;2023-02-22T15:33:43;13.30;99.90
3860;DHT22;1945;52.036;8.614;2023-02-22T15:36:15;13.30;99.90
3860;DHT22;1945;52.036;8.614;2023-02-22T15:38:47;13.30;99.90
3860;DHT22;1945;52.036;8.614;2023-02-22T15:41:25;13.20;99.90
3860;DHT22;1945;52.036;8.614;2023-02-22T15:44:02;13.20;99.90
3860;DHT22;1945;52.036;8.614;2023-02-22T15:46:32;13.20;99.90
3860;DHT22;1945;52.036;8.614;2023-02-22T15:49:06;13.20;99.90
3860;DHT22;1945;52.036;8.614;2023-02-22T15:51:37;13.10;99.90
3860;DHT22;1945;52.036;8.614;2023-02-22T15:54:05;13.10;99.90
3860;DHT22;1945;52.036;8.614;2023-02-22T15:56:34;13.10;99.90
3860;DHT22;1945;52.036;8.614;2023-02-22T15:59:06;13.00;99.90
3860;DHT22;1945;52.036;8.614;2023-02-22T16:01:37;13.00;99.90
3860;DHT22;1945;52.036;8.614;2023-02-22T16:04:04;12.90;99.90
3860;DHT22;1945;52.036;8.614;2023-02-22T16:06:32;12.90;99.90
3860;DHT22;1945;52.036;8.614;2023-02-22T16:09:07;12.90;99.90
3860;DHT22;1945;52.036;8.614;2023-02-22T16:11:35;12.80;99.90
3860;DHT22;1945;52.036;8.614;2023-02-22T16:14:21;12.80;99.90
3860;DHT22;1945;52.036;8.614;2023-02-22T16:16:48;12.70;99.90
3860;DHT22;1945;52.036;8.614;2023-02-22T16:19:27;12.70;99.90
3860;DHT22;1945;52.036;8.614;2023-02-22T16:21:59;12.60;99.90
3860;DHT22;1945;52.036;8.614;2023-02-22T16:24:30;12.60;99.90
3860;DHT22;1945;52.036;8.614;2023-02-22T16:27:05;12.50;1.00
3860;DHT22;1945;52.036;8.614;2023-02-22T16:29:32;12.40;99.90
3860;DHT22;1945;52.036;8.614;2023-02-22T16:31:59;12.40;1.00
3860;DHT22;1945;52.036;8.614;2023-02-22T16:34:29;12.30;99.90
3860;DHT22;1945;52.036;8.614;2023-02-22T16:36:56;12.30;99.90
3860;DHT22;1945;52.036;8.614;2023-02-22T16:39:33;12.20;99.90
3860;DHT22;1945;52.036;8.614;2023-02-22T16:42:03;12.20;99.90
3860;DHT22;1945;52.036;8.614;2023-02-22T16:44:33;12.10;99.90
3860;DHT22;1945;52.036;8.614;2023-02-22T16:47:00;12.00;1.00
3860;DHT22;1945;52.036;8.614;2023-02-22T16:49:27;12.00;1.00
3860;DHT22;1945;52.036;8.614;2023-02-22T16:51:55;11.90;1.00
3860;DHT22;1945;52.036;8.614;2023-02-22T16:54:27;11.80;1.00
3860;DHT22;1945;52.036;8.614;2023-02-22T16:56:56;11.70;1.00
3860;DHT22;1945;52.036;8.614;2023-02-22T16:59:24;11.60;1.00
3860;DHT22;1945;52.036;8.614;2023-02-22T17:01:51;11.60;1.00
3860;DHT22;1945;52.036;8.614;2023-02-22T17:04:19;11.50;1.00
3860;DHT22;1945;52.036;8.614;2023-02-22T17:06:46;11.40;1.00
3860;DHT22;1945;52.036;8.614;2023-02-22T17:09:13;11.40;1.00
3860;DHT22;1945;52.036;8.614;2023-02-22T17:11:41;11.30;1.00
3860;DHT22;1945;52.036;8.614;2023-02-22T17:14:15;11.20;1.00
3860;DHT22;1945;52.036;8.614;2023-02-22T17:16:42;11.10;1.00
3860;DHT22;1945;52.036;8.614;2023-02-22T17:19:14;11.10;1.00
3860;DHT22;1945;52.036;8.614;2023-02-22T17:21:42;11.00;1.00
3860;DHT22;1945;52.036;8.614;2023-02-22T17:24:09;11.00;1.00
3860;DHT22;1945;52.036;8.614;2023-02-22T17:26:37;10.90;1.00
3860;DHT22;1945;52.036;8.614;2023-02-22T17:29:03;10.90;1.00
3860;DHT22;1945;52.036;8.614;2023-02-22T17:31:33;10.90;1.00
3860;DHT22;1945;52.036;8.614;2023-02-22T17:34:00;10.90;1.00
3860;DHT22;1945;52.036;8.614;2023-02-22T17:36:27;10.80;1.00
3860;DHT22;1945;52.036;8.614;2023-02-22T17:38:54;10.70;1.00
3860;DHT22;1945;52.036;8.614;2023-02-22T17:41:21;10.70;1.00
3860;DHT22;1945;52.036;8.614;2023-02-22T17:43:48;10.70;1.00
3860;DHT22;1945;52.036;8.614;2023-02-22T17:46:15;10.40;1.00
3860;DHT22;1945;52.036;8.614;2023-02-22T17:48:45;10.60;1.00
3860;DHT22;1945;52.036;8.614;2023-02-22T17:51:12;10.50;1.00
3860;DHT22;1945;52.036;8.614;2023-02-22T17:53:39;10.50;1.00
3860;DHT22;1945;52.036;8.614;2023-02-22T17:56:07;10.50;47.50
3860;DHT22;1945;52.036;8.614;2023-02-22T17:58:35;10.40;63.50
3860;DHT22;1945;52.036;8.614;2023-02-22T18:01:03;10.50;27.70
3860;DHT22;1945;52.036;8.614;2023-02-22T18:03:30;10.40;22.30
3860;DHT22;1945;52.036;8.614;2023-02-22T18:05:59;10.30;39.20